<?xml version="1.0" encoding="UTF-8" standalone="no" ?>
<gpx xmlns="http://www.topografix.com/GPX/1/1" xmlns:xsi="http://www.w3.org/2001/XMLSchema-instance" xsi:schemaLocation="http://www.topografix.com/GPX/1/1 http://www.topografix.com/GPX/1/1/gpx.xsd" version="1.1" creator="VisuGPX - https://www.visugpx.com">
  <metadata>
    <name>Trail -10km TS Dinant 2022</name>
    <desc><![CDATA[Tracé du trail au départ de Dinant : distance 10 km]]></desc>
  </metadata>
  <wpt lat="50.25734" lon="4.91655">
    <ele>102.2</ele>
    <name><![CDATA[]]></name>
    <desc><![CDATA[DEPART CHRONO]]></desc>
  </wpt>
  <wpt lat="50.25711" lon="4.91113">
    <ele>119.8</ele>
    <name><![CDATA[]]></name>
    <desc><![CDATA[FIN CHRONO]]></desc>
  </wpt>
  <trk>
    <name><![CDATA[14216029-10km TS Dinant 2022]]></name>
    <trkseg>
      <trkpt lat="50.26076" lon="4.90998">
        <ele>96</ele>
        <time>2022-04-18T21:50:16Z</time>
      </trkpt>
      <trkpt lat="50.2602" lon="4.91047">
        <ele>99</ele>
        <time>2022-04-18T21:50:48Z</time>
      </trkpt>
      <trkpt lat="50.26023" lon="4.91059">
        <ele>98</ele>
        <time>2022-04-18T21:50:52Z</time>
      </trkpt>
      <trkpt lat="50.26048" lon="4.91192">
        <ele>99</ele>
        <time>2022-04-18T21:51:37Z</time>
      </trkpt>
      <trkpt lat="50.26057" lon="4.91207">
        <ele>99</ele>
        <time>2022-04-18T21:51:43Z</time>
      </trkpt>
      <trkpt lat="50.26065" lon="4.91211">
        <ele>100</ele>
        <time>2022-04-18T21:51:47Z</time>
      </trkpt>
      <trkpt lat="50.26079" lon="4.91211">
        <ele>101</ele>
        <time>2022-04-18T21:51:54Z</time>
      </trkpt>
      <trkpt lat="50.26097" lon="4.91195">
        <ele>102</ele>
        <time>2022-04-18T21:52:05Z</time>
      </trkpt>
      <trkpt lat="50.26082" lon="4.91163">
        <ele>100</ele>
        <time>2022-04-18T21:52:17Z</time>
      </trkpt>
      <trkpt lat="50.26063" lon="4.91177">
        <ele>99</ele>
        <time>2022-04-18T21:52:28Z</time>
      </trkpt>
      <trkpt lat="50.26038" lon="4.91197">
        <ele>98</ele>
        <time>2022-04-18T21:52:42Z</time>
      </trkpt>
      <trkpt lat="50.25885" lon="4.91257">
        <ele>93</ele>
        <time>2022-04-18T21:54:01Z</time>
      </trkpt>
      <trkpt lat="50.25797" lon="4.91285">
        <ele>93</ele>
        <time>2022-04-18T21:54:46Z</time>
      </trkpt>
      <trkpt lat="50.25704" lon="4.91316">
        <ele>92</ele>
        <time>2022-04-18T21:55:33Z</time>
      </trkpt>
      <trkpt lat="50.25701" lon="4.91316">
        <ele>92</ele>
        <time>2022-04-18T21:55:35Z</time>
      </trkpt>
      <trkpt lat="50.25708" lon="4.91328">
        <ele>92</ele>
        <time>2022-04-18T21:55:40Z</time>
      </trkpt>
      <trkpt lat="50.25698" lon="4.91331">
        <ele>92</ele>
        <time>2022-04-18T21:55:45Z</time>
      </trkpt>
      <trkpt lat="50.25642" lon="4.91386">
        <ele>92</ele>
        <time>2022-04-18T21:56:18Z</time>
      </trkpt>
      <trkpt lat="50.25656" lon="4.91396">
        <ele>92</ele>
        <time>2022-04-18T21:56:26Z</time>
      </trkpt>
      <trkpt lat="50.25671" lon="4.91446">
        <ele>94</ele>
        <time>2022-04-18T21:56:44Z</time>
      </trkpt>
      <trkpt lat="50.25705" lon="4.91529">
        <ele>97</ele>
        <time>2022-04-18T21:57:15Z</time>
      </trkpt>
      <trkpt lat="50.25691" lon="4.91547">
        <ele>96</ele>
        <time>2022-04-18T21:57:24Z</time>
      </trkpt>
      <trkpt lat="50.25734" lon="4.91655">
        <ele>110</ele>
        <time>2022-04-18T21:58:05Z</time>
      </trkpt>
      <trkpt lat="50.2572" lon="4.91685">
        <ele>116</ele>
        <time>2022-04-18T21:58:17Z</time>
      </trkpt>
      <trkpt lat="50.25706" lon="4.91703">
        <ele>120</ele>
        <time>2022-04-18T21:58:26Z</time>
      </trkpt>
      <trkpt lat="50.25682" lon="4.91722">
        <ele>121</ele>
        <time>2022-04-18T21:58:39Z</time>
      </trkpt>
      <trkpt lat="50.25657" lon="4.91735">
        <ele>120</ele>
        <time>2022-04-18T21:58:53Z</time>
      </trkpt>
      <trkpt lat="50.25646" lon="4.91743">
        <ele>121</ele>
        <time>2022-04-18T21:58:59Z</time>
      </trkpt>
      <trkpt lat="50.2564" lon="4.9175">
        <ele>122</ele>
        <time>2022-04-18T21:59:02Z</time>
      </trkpt>
      <trkpt lat="50.25638" lon="4.91755">
        <ele>124</ele>
        <time>2022-04-18T21:59:04Z</time>
      </trkpt>
      <trkpt lat="50.25641" lon="4.91762">
        <ele>128</ele>
        <time>2022-04-18T21:59:07Z</time>
      </trkpt>
      <trkpt lat="50.2565" lon="4.91764">
        <ele>130</ele>
        <time>2022-04-18T21:59:12Z</time>
      </trkpt>
      <trkpt lat="50.25697" lon="4.91784">
        <ele>146</ele>
        <time>2022-04-18T21:59:36Z</time>
      </trkpt>
      <trkpt lat="50.25702" lon="4.91792">
        <ele>150</ele>
        <time>2022-04-18T21:59:40Z</time>
      </trkpt>
      <trkpt lat="50.25708" lon="4.91799">
        <ele>154</ele>
        <time>2022-04-18T21:59:43Z</time>
      </trkpt>
      <trkpt lat="50.25714" lon="4.91812">
        <ele>159</ele>
        <time>2022-04-18T21:59:48Z</time>
      </trkpt>
      <trkpt lat="50.25701" lon="4.91824">
        <ele>162</ele>
        <time>2022-04-18T21:59:56Z</time>
      </trkpt>
      <trkpt lat="50.25715" lon="4.91837">
        <ele>167</ele>
        <time>2022-04-18T22:00:04Z</time>
      </trkpt>
      <trkpt lat="50.25721" lon="4.9185">
        <ele>171</ele>
        <time>2022-04-18T22:00:09Z</time>
      </trkpt>
      <trkpt lat="50.25714" lon="4.91867">
        <ele>174</ele>
        <time>2022-04-18T22:00:16Z</time>
      </trkpt>
      <trkpt lat="50.25714" lon="4.91887">
        <ele>179</ele>
        <time>2022-04-18T22:00:22Z</time>
      </trkpt>
      <trkpt lat="50.25716" lon="4.91895">
        <ele>181</ele>
        <time>2022-04-18T22:00:25Z</time>
      </trkpt>
      <trkpt lat="50.25722" lon="4.91892">
        <ele>180</ele>
        <time>2022-04-18T22:00:28Z</time>
      </trkpt>
      <trkpt lat="50.25729" lon="4.91884">
        <ele>178</ele>
        <time>2022-04-18T22:00:32Z</time>
      </trkpt>
      <trkpt lat="50.25744" lon="4.91853">
        <ele>172</ele>
        <time>2022-04-18T22:00:45Z</time>
      </trkpt>
      <trkpt lat="50.25763" lon="4.91843">
        <ele>172</ele>
        <time>2022-04-18T22:00:55Z</time>
      </trkpt>
      <trkpt lat="50.25769" lon="4.91826">
        <ele>170</ele>
        <time>2022-04-18T22:01:01Z</time>
      </trkpt>
      <trkpt lat="50.25781" lon="4.91815">
        <ele>169</ele>
        <time>2022-04-18T22:01:08Z</time>
      </trkpt>
      <trkpt lat="50.2579" lon="4.91817">
        <ele>171</ele>
        <time>2022-04-18T22:01:13Z</time>
      </trkpt>
      <trkpt lat="50.258" lon="4.91836">
        <ele>176</ele>
        <time>2022-04-18T22:01:20Z</time>
      </trkpt>
      <trkpt lat="50.25816" lon="4.9185">
        <ele>179</ele>
        <time>2022-04-18T22:01:30Z</time>
      </trkpt>
      <trkpt lat="50.25778" lon="4.91867">
        <ele>178</ele>
        <time>2022-04-18T22:01:49Z</time>
      </trkpt>
      <trkpt lat="50.25743" lon="4.91953">
        <ele>188</ele>
        <time>2022-04-18T22:02:22Z</time>
      </trkpt>
      <trkpt lat="50.25727" lon="4.91978">
        <ele>191</ele>
        <time>2022-04-18T22:02:33Z</time>
      </trkpt>
      <trkpt lat="50.25705" lon="4.91971">
        <ele>191</ele>
        <time>2022-04-18T22:02:45Z</time>
      </trkpt>
      <trkpt lat="50.25671" lon="4.91925">
        <ele>188</ele>
        <time>2022-04-18T22:03:07Z</time>
      </trkpt>
      <trkpt lat="50.25655" lon="4.91918">
        <ele>187</ele>
        <time>2022-04-18T22:03:15Z</time>
      </trkpt>
      <trkpt lat="50.25632" lon="4.91912">
        <ele>186</ele>
        <time>2022-04-18T22:03:27Z</time>
      </trkpt>
      <trkpt lat="50.25611" lon="4.91912">
        <ele>187</ele>
        <time>2022-04-18T22:03:38Z</time>
      </trkpt>
      <trkpt lat="50.25577" lon="4.91933">
        <ele>190</ele>
        <time>2022-04-18T22:03:56Z</time>
      </trkpt>
      <trkpt lat="50.25543" lon="4.91951">
        <ele>189</ele>
        <time>2022-04-18T22:04:14Z</time>
      </trkpt>
      <trkpt lat="50.25521" lon="4.91967">
        <ele>190</ele>
        <time>2022-04-18T22:04:26Z</time>
      </trkpt>
      <trkpt lat="50.2549" lon="4.91986">
        <ele>191</ele>
        <time>2022-04-18T22:04:43Z</time>
      </trkpt>
      <trkpt lat="50.25437" lon="4.91994">
        <ele>185</ele>
        <time>2022-04-18T22:05:09Z</time>
      </trkpt>
      <trkpt lat="50.25406" lon="4.91993">
        <ele>180</ele>
        <time>2022-04-18T22:05:25Z</time>
      </trkpt>
      <trkpt lat="50.25394" lon="4.92004">
        <ele>178</ele>
        <time>2022-04-18T22:05:32Z</time>
      </trkpt>
      <trkpt lat="50.25372" lon="4.92065">
        <ele>178</ele>
        <time>2022-04-18T22:05:54Z</time>
      </trkpt>
      <trkpt lat="50.25371" lon="4.92103">
        <ele>182</ele>
        <time>2022-04-18T22:06:06Z</time>
      </trkpt>
      <trkpt lat="50.25367" lon="4.92124">
        <ele>182</ele>
        <time>2022-04-18T22:06:13Z</time>
      </trkpt>
      <trkpt lat="50.2533" lon="4.92157">
        <ele>178</ele>
        <time>2022-04-18T22:06:35Z</time>
      </trkpt>
      <trkpt lat="50.25321" lon="4.92123">
        <ele>176</ele>
        <time>2022-04-18T22:06:46Z</time>
      </trkpt>
      <trkpt lat="50.25317" lon="4.92099">
        <ele>175</ele>
        <time>2022-04-18T22:06:54Z</time>
      </trkpt>
      <trkpt lat="50.25302" lon="4.92084">
        <ele>175</ele>
        <time>2022-04-18T22:07:03Z</time>
      </trkpt>
      <trkpt lat="50.25293" lon="4.92079">
        <ele>176</ele>
        <time>2022-04-18T22:07:08Z</time>
      </trkpt>
      <trkpt lat="50.25286" lon="4.9208">
        <ele>177</ele>
        <time>2022-04-18T22:07:12Z</time>
      </trkpt>
      <trkpt lat="50.2528" lon="4.92083">
        <ele>178</ele>
        <time>2022-04-18T22:07:15Z</time>
      </trkpt>
      <trkpt lat="50.25275" lon="4.9209">
        <ele>179</ele>
        <time>2022-04-18T22:07:18Z</time>
      </trkpt>
      <trkpt lat="50.25273" lon="4.92096">
        <ele>180</ele>
        <time>2022-04-18T22:07:20Z</time>
      </trkpt>
      <trkpt lat="50.25274" lon="4.92114">
        <ele>182</ele>
        <time>2022-04-18T22:07:26Z</time>
      </trkpt>
      <trkpt lat="50.25277" lon="4.92122">
        <ele>182</ele>
        <time>2022-04-18T22:07:29Z</time>
      </trkpt>
      <trkpt lat="50.25295" lon="4.92147">
        <ele>182</ele>
        <time>2022-04-18T22:07:41Z</time>
      </trkpt>
      <trkpt lat="50.25298" lon="4.92156">
        <ele>182</ele>
        <time>2022-04-18T22:07:44Z</time>
      </trkpt>
      <trkpt lat="50.25298" lon="4.9219">
        <ele>186</ele>
        <time>2022-04-18T22:07:55Z</time>
      </trkpt>
      <trkpt lat="50.25296" lon="4.92199">
        <ele>187</ele>
        <time>2022-04-18T22:07:58Z</time>
      </trkpt>
      <trkpt lat="50.25283" lon="4.92215">
        <ele>190</ele>
        <time>2022-04-18T22:08:06Z</time>
      </trkpt>
      <trkpt lat="50.25266" lon="4.9224">
        <ele>195</ele>
        <time>2022-04-18T22:08:18Z</time>
      </trkpt>
      <trkpt lat="50.25261" lon="4.92252">
        <ele>196</ele>
        <time>2022-04-18T22:08:23Z</time>
      </trkpt>
      <trkpt lat="50.25259" lon="4.92266">
        <ele>197</ele>
        <time>2022-04-18T22:08:27Z</time>
      </trkpt>
      <trkpt lat="50.25249" lon="4.92285">
        <ele>199</ele>
        <time>2022-04-18T22:08:35Z</time>
      </trkpt>
      <trkpt lat="50.25241" lon="4.92292">
        <ele>200</ele>
        <time>2022-04-18T22:08:40Z</time>
      </trkpt>
      <trkpt lat="50.25205" lon="4.92306">
        <ele>203</ele>
        <time>2022-04-18T22:08:58Z</time>
      </trkpt>
      <trkpt lat="50.25152" lon="4.92417">
        <ele>216</ele>
        <time>2022-04-18T22:09:43Z</time>
      </trkpt>
      <trkpt lat="50.25098" lon="4.92521">
        <ele>227</ele>
        <time>2022-04-18T22:10:26Z</time>
      </trkpt>
      <trkpt lat="50.25081" lon="4.9256">
        <ele>230</ele>
        <time>2022-04-18T22:10:41Z</time>
      </trkpt>
      <trkpt lat="50.25061" lon="4.92598">
        <ele>232</ele>
        <time>2022-04-18T22:10:56Z</time>
      </trkpt>
      <trkpt lat="50.25021" lon="4.92554">
        <ele>232</ele>
        <time>2022-04-18T22:11:21Z</time>
      </trkpt>
      <trkpt lat="50.24998" lon="4.92546">
        <ele>232</ele>
        <time>2022-04-18T22:11:33Z</time>
      </trkpt>
      <trkpt lat="50.24988" lon="4.92547">
        <ele>231</ele>
        <time>2022-04-18T22:11:38Z</time>
      </trkpt>
      <trkpt lat="50.2498" lon="4.92551">
        <ele>230</ele>
        <time>2022-04-18T22:11:42Z</time>
      </trkpt>
      <trkpt lat="50.24953" lon="4.92536">
        <ele>226</ele>
        <time>2022-04-18T22:11:56Z</time>
      </trkpt>
      <trkpt lat="50.24909" lon="4.92519">
        <ele>218</ele>
        <time>2022-04-18T22:12:19Z</time>
      </trkpt>
      <trkpt lat="50.24879" lon="4.92524">
        <ele>213</ele>
        <time>2022-04-18T22:12:34Z</time>
      </trkpt>
      <trkpt lat="50.24778" lon="4.92569">
        <ele>207</ele>
        <time>2022-04-18T22:13:27Z</time>
      </trkpt>
      <trkpt lat="50.24765" lon="4.9265">
        <ele>209</ele>
        <time>2022-04-18T22:13:53Z</time>
      </trkpt>
      <trkpt lat="50.24714" lon="4.92605">
        <ele>206</ele>
        <time>2022-04-18T22:14:23Z</time>
      </trkpt>
      <trkpt lat="50.24686" lon="4.9258">
        <ele>204</ele>
        <time>2022-04-18T22:14:39Z</time>
      </trkpt>
      <trkpt lat="50.24583" lon="4.92513">
        <ele>205</ele>
        <time>2022-04-18T22:15:35Z</time>
      </trkpt>
      <trkpt lat="50.24565" lon="4.92505">
        <ele>203</ele>
        <time>2022-04-18T22:15:44Z</time>
      </trkpt>
      <trkpt lat="50.24547" lon="4.925">
        <ele>202</ele>
        <time>2022-04-18T22:15:53Z</time>
      </trkpt>
      <trkpt lat="50.24533" lon="4.92517">
        <ele>198</ele>
        <time>2022-04-18T22:16:02Z</time>
      </trkpt>
      <trkpt lat="50.24506" lon="4.92499">
        <ele>199</ele>
        <time>2022-04-18T22:16:17Z</time>
      </trkpt>
      <trkpt lat="50.24495" lon="4.92473">
        <ele>199</ele>
        <time>2022-04-18T22:16:27Z</time>
      </trkpt>
      <trkpt lat="50.24481" lon="4.92476">
        <ele>191</ele>
        <time>2022-04-18T22:16:34Z</time>
      </trkpt>
      <trkpt lat="50.24477" lon="4.92505">
        <ele>186</ele>
        <time>2022-04-18T22:16:43Z</time>
      </trkpt>
      <trkpt lat="50.24447" lon="4.92483">
        <ele>173</ele>
        <time>2022-04-18T22:17:00Z</time>
      </trkpt>
      <trkpt lat="50.24433" lon="4.92458">
        <ele>168</ele>
        <time>2022-04-18T22:17:10Z</time>
      </trkpt>
      <trkpt lat="50.24427" lon="4.92415">
        <ele>168</ele>
        <time>2022-04-18T22:17:24Z</time>
      </trkpt>
      <trkpt lat="50.24421" lon="4.92442">
        <ele>163</ele>
        <time>2022-04-18T22:17:34Z</time>
      </trkpt>
      <trkpt lat="50.24419" lon="4.92413">
        <ele>163</ele>
        <time>2022-04-18T22:17:43Z</time>
      </trkpt>
      <trkpt lat="50.24409" lon="4.92434">
        <ele>157</ele>
        <time>2022-04-18T22:17:51Z</time>
      </trkpt>
      <trkpt lat="50.24405" lon="4.92398">
        <ele>155</ele>
        <time>2022-04-18T22:18:03Z</time>
      </trkpt>
      <trkpt lat="50.24392" lon="4.92478">
        <ele>147</ele>
        <time>2022-04-18T22:18:29Z</time>
      </trkpt>
      <trkpt lat="50.24385" lon="4.92462">
        <ele>144</ele>
        <time>2022-04-18T22:18:36Z</time>
      </trkpt>
      <trkpt lat="50.2438" lon="4.92441">
        <ele>142</ele>
        <time>2022-04-18T22:18:43Z</time>
      </trkpt>
      <trkpt lat="50.24371" lon="4.92384">
        <ele>136</ele>
        <time>2022-04-18T22:19:02Z</time>
      </trkpt>
      <trkpt lat="50.24364" lon="4.92312">
        <ele>126</ele>
        <time>2022-04-18T22:19:25Z</time>
      </trkpt>
      <trkpt lat="50.24362" lon="4.92311">
        <ele>125</ele>
        <time>2022-04-18T22:19:26Z</time>
      </trkpt>
      <trkpt lat="50.24357" lon="4.92333">
        <ele>126</ele>
        <time>2022-04-18T22:19:33Z</time>
      </trkpt>
      <trkpt lat="50.24347" lon="4.92384">
        <ele>123</ele>
        <time>2022-04-18T22:19:50Z</time>
      </trkpt>
      <trkpt lat="50.24341" lon="4.92424">
        <ele>121</ele>
        <time>2022-04-18T22:20:04Z</time>
      </trkpt>
      <trkpt lat="50.24339" lon="4.92424">
        <ele>120</ele>
        <time>2022-04-18T22:20:05Z</time>
      </trkpt>
      <trkpt lat="50.24336" lon="4.92402">
        <ele>118</ele>
        <time>2022-04-18T22:20:12Z</time>
      </trkpt>
      <trkpt lat="50.24332" lon="4.92361">
        <ele>115</ele>
        <time>2022-04-18T22:20:25Z</time>
      </trkpt>
      <trkpt lat="50.2433" lon="4.92351">
        <ele>115</ele>
        <time>2022-04-18T22:20:28Z</time>
      </trkpt>
      <trkpt lat="50.24329" lon="4.92331">
        <ele>114</ele>
        <time>2022-04-18T22:20:35Z</time>
      </trkpt>
      <trkpt lat="50.24323" lon="4.9233">
        <ele>115</ele>
        <time>2022-04-18T22:20:38Z</time>
      </trkpt>
      <trkpt lat="50.24325" lon="4.9241">
        <ele>119</ele>
        <time>2022-04-18T22:21:03Z</time>
      </trkpt>
      <trkpt lat="50.24324" lon="4.92585">
        <ele>121</ele>
        <time>2022-04-18T22:21:59Z</time>
      </trkpt>
      <trkpt lat="50.24331" lon="4.92609">
        <ele>123</ele>
        <time>2022-04-18T22:22:08Z</time>
      </trkpt>
      <trkpt lat="50.24376" lon="4.92681">
        <ele>131</ele>
        <time>2022-04-18T22:22:40Z</time>
      </trkpt>
      <trkpt lat="50.24402" lon="4.92732">
        <ele>131</ele>
        <time>2022-04-18T22:23:01Z</time>
      </trkpt>
      <trkpt lat="50.2435" lon="4.92719">
        <ele>143</ele>
        <time>2022-04-18T22:23:27Z</time>
      </trkpt>
      <trkpt lat="50.2431" lon="4.92676">
        <ele>145</ele>
        <time>2022-04-18T22:23:52Z</time>
      </trkpt>
      <trkpt lat="50.24262" lon="4.92595">
        <ele>145</ele>
        <time>2022-04-18T22:24:27Z</time>
      </trkpt>
      <trkpt lat="50.24241" lon="4.9253">
        <ele>148</ele>
        <time>2022-04-18T22:24:50Z</time>
      </trkpt>
      <trkpt lat="50.24226" lon="4.92449">
        <ele>150</ele>
        <time>2022-04-18T22:25:17Z</time>
      </trkpt>
      <trkpt lat="50.24192" lon="4.92325">
        <ele>153</ele>
        <time>2022-04-18T22:26:00Z</time>
      </trkpt>
      <trkpt lat="50.24172" lon="4.92289">
        <ele>154</ele>
        <time>2022-04-18T22:26:16Z</time>
      </trkpt>
      <trkpt lat="50.24161" lon="4.92282">
        <ele>155</ele>
        <time>2022-04-18T22:26:22Z</time>
      </trkpt>
      <trkpt lat="50.24153" lon="4.92283">
        <ele>155</ele>
        <time>2022-04-18T22:26:26Z</time>
      </trkpt>
      <trkpt lat="50.24144" lon="4.92297">
        <ele>158</ele>
        <time>2022-04-18T22:26:32Z</time>
      </trkpt>
      <trkpt lat="50.24139" lon="4.92295">
        <ele>157</ele>
        <time>2022-04-18T22:26:35Z</time>
      </trkpt>
      <trkpt lat="50.24132" lon="4.92299">
        <ele>158</ele>
        <time>2022-04-18T22:26:38Z</time>
      </trkpt>
      <trkpt lat="50.24092" lon="4.92331">
        <ele>163</ele>
        <time>2022-04-18T22:27:01Z</time>
      </trkpt>
      <trkpt lat="50.24053" lon="4.92359">
        <ele>168</ele>
        <time>2022-04-18T22:27:22Z</time>
      </trkpt>
      <trkpt lat="50.24046" lon="4.92323">
        <ele>166</ele>
        <time>2022-04-18T22:27:34Z</time>
      </trkpt>
      <trkpt lat="50.24044" lon="4.92304">
        <ele>165</ele>
        <time>2022-04-18T22:27:41Z</time>
      </trkpt>
      <trkpt lat="50.24044" lon="4.9228">
        <ele>164</ele>
        <time>2022-04-18T22:27:48Z</time>
      </trkpt>
      <trkpt lat="50.24039" lon="4.92261">
        <ele>164</ele>
        <time>2022-04-18T22:27:55Z</time>
      </trkpt>
      <trkpt lat="50.24004" lon="4.92232">
        <ele>176</ele>
        <time>2022-04-18T22:28:15Z</time>
      </trkpt>
      <trkpt lat="50.23991" lon="4.92244">
        <ele>180</ele>
        <time>2022-04-18T22:28:22Z</time>
      </trkpt>
      <trkpt lat="50.23965" lon="4.92306">
        <ele>183</ele>
        <time>2022-04-18T22:28:46Z</time>
      </trkpt>
      <trkpt lat="50.23942" lon="4.92381">
        <ele>183</ele>
        <time>2022-04-18T22:29:13Z</time>
      </trkpt>
      <trkpt lat="50.23929" lon="4.92432">
        <ele>181</ele>
        <time>2022-04-18T22:29:30Z</time>
      </trkpt>
      <trkpt lat="50.23913" lon="4.92527">
        <ele>182</ele>
        <time>2022-04-18T22:30:02Z</time>
      </trkpt>
      <trkpt lat="50.2389" lon="4.92623">
        <ele>186</ele>
        <time>2022-04-18T22:30:34Z</time>
      </trkpt>
      <trkpt lat="50.23879" lon="4.92658">
        <ele>189</ele>
        <time>2022-04-18T22:30:47Z</time>
      </trkpt>
      <trkpt lat="50.23838" lon="4.92829">
        <ele>199</ele>
        <time>2022-04-18T22:31:45Z</time>
      </trkpt>
      <trkpt lat="50.23697" lon="4.93082">
        <ele>224</ele>
        <time>2022-04-18T22:33:33Z</time>
      </trkpt>
      <trkpt lat="50.23612" lon="4.93202">
        <ele>234</ele>
        <time>2022-04-18T22:34:30Z</time>
      </trkpt>
      <trkpt lat="50.23563" lon="4.93241">
        <ele>237</ele>
        <time>2022-04-18T22:34:58Z</time>
      </trkpt>
      <trkpt lat="50.23525" lon="4.93047">
        <ele>231</ele>
        <time>2022-04-18T22:36:02Z</time>
      </trkpt>
      <trkpt lat="50.23468" lon="4.92669">
        <ele>229</ele>
        <time>2022-04-18T22:38:07Z</time>
      </trkpt>
      <trkpt lat="50.23464" lon="4.92628">
        <ele>230</ele>
        <time>2022-04-18T22:38:20Z</time>
      </trkpt>
      <trkpt lat="50.23466" lon="4.92595">
        <ele>230</ele>
        <time>2022-04-18T22:38:31Z</time>
      </trkpt>
      <trkpt lat="50.23546" lon="4.92143">
        <ele>217</ele>
        <time>2022-04-18T22:41:01Z</time>
      </trkpt>
      <trkpt lat="50.23553" lon="4.92091">
        <ele>215</ele>
        <time>2022-04-18T22:41:18Z</time>
      </trkpt>
      <trkpt lat="50.23552" lon="4.92051">
        <ele>214</ele>
        <time>2022-04-18T22:41:31Z</time>
      </trkpt>
      <trkpt lat="50.23536" lon="4.91925">
        <ele>209</ele>
        <time>2022-04-18T22:42:12Z</time>
      </trkpt>
      <trkpt lat="50.23545" lon="4.91902">
        <ele>207</ele>
        <time>2022-04-18T22:42:20Z</time>
      </trkpt>
      <trkpt lat="50.23556" lon="4.91851">
        <ele>200</ele>
        <time>2022-04-18T22:42:38Z</time>
      </trkpt>
      <trkpt lat="50.23565" lon="4.91792">
        <ele>193</ele>
        <time>2022-04-18T22:42:57Z</time>
      </trkpt>
      <trkpt lat="50.23572" lon="4.91737">
        <ele>188</ele>
        <time>2022-04-18T22:43:15Z</time>
      </trkpt>
      <trkpt lat="50.23584" lon="4.91597">
        <ele>180</ele>
        <time>2022-04-18T22:44:00Z</time>
      </trkpt>
      <trkpt lat="50.23583" lon="4.91555">
        <ele>177</ele>
        <time>2022-04-18T22:44:14Z</time>
      </trkpt>
      <trkpt lat="50.23573" lon="4.91474">
        <ele>172</ele>
        <time>2022-04-18T22:44:40Z</time>
      </trkpt>
      <trkpt lat="50.23558" lon="4.91384">
        <ele>167</ele>
        <time>2022-04-18T22:45:10Z</time>
      </trkpt>
      <trkpt lat="50.23586" lon="4.91294">
        <ele>156</ele>
        <time>2022-04-18T22:45:42Z</time>
      </trkpt>
      <trkpt lat="50.23609" lon="4.91243">
        <ele>146</ele>
        <time>2022-04-18T22:46:02Z</time>
      </trkpt>
      <trkpt lat="50.23623" lon="4.91194">
        <ele>139</ele>
        <time>2022-04-18T22:46:19Z</time>
      </trkpt>
      <trkpt lat="50.23623" lon="4.91186">
        <ele>139</ele>
        <time>2022-04-18T22:46:22Z</time>
      </trkpt>
      <trkpt lat="50.23625" lon="4.91186">
        <ele>138</ele>
        <time>2022-04-18T22:46:23Z</time>
      </trkpt>
      <trkpt lat="50.23629" lon="4.91169">
        <ele>137</ele>
        <time>2022-04-18T22:46:28Z</time>
      </trkpt>
      <trkpt lat="50.23637" lon="4.91156">
        <ele>136</ele>
        <time>2022-04-18T22:46:34Z</time>
      </trkpt>
      <trkpt lat="50.23646" lon="4.91145">
        <ele>135</ele>
        <time>2022-04-18T22:46:40Z</time>
      </trkpt>
      <trkpt lat="50.23677" lon="4.91128">
        <ele>132</ele>
        <time>2022-04-18T22:46:56Z</time>
      </trkpt>
      <trkpt lat="50.23708" lon="4.91117">
        <ele>128</ele>
        <time>2022-04-18T22:47:12Z</time>
      </trkpt>
      <trkpt lat="50.2374" lon="4.91095">
        <ele>124</ele>
        <time>2022-04-18T22:47:30Z</time>
      </trkpt>
      <trkpt lat="50.23774" lon="4.91049">
        <ele>116</ele>
        <time>2022-04-18T22:47:52Z</time>
      </trkpt>
      <trkpt lat="50.23781" lon="4.91042">
        <ele>114</ele>
        <time>2022-04-18T22:47:56Z</time>
      </trkpt>
      <trkpt lat="50.23785" lon="4.91015">
        <ele>112</ele>
        <time>2022-04-18T22:48:05Z</time>
      </trkpt>
      <trkpt lat="50.23785" lon="4.90996">
        <ele>112</ele>
        <time>2022-04-18T22:48:11Z</time>
      </trkpt>
      <trkpt lat="50.23786" lon="4.90992">
        <ele>111</ele>
        <time>2022-04-18T22:48:13Z</time>
      </trkpt>
      <trkpt lat="50.23791" lon="4.90994">
        <ele>110</ele>
        <time>2022-04-18T22:48:15Z</time>
      </trkpt>
      <trkpt lat="50.23802" lon="4.91006">
        <ele>108</ele>
        <time>2022-04-18T22:48:22Z</time>
      </trkpt>
      <trkpt lat="50.23803" lon="4.91005">
        <ele>108</ele>
        <time>2022-04-18T22:48:23Z</time>
      </trkpt>
      <trkpt lat="50.23802" lon="4.90983">
        <ele>106</ele>
        <time>2022-04-18T22:48:30Z</time>
      </trkpt>
      <trkpt lat="50.23805" lon="4.90988">
        <ele>106</ele>
        <time>2022-04-18T22:48:32Z</time>
      </trkpt>
      <trkpt lat="50.23816" lon="4.91005">
        <ele>105</ele>
        <time>2022-04-18T22:48:40Z</time>
      </trkpt>
      <trkpt lat="50.23807" lon="4.9098">
        <ele>105</ele>
        <time>2022-04-18T22:48:49Z</time>
      </trkpt>
      <trkpt lat="50.23804" lon="4.90968">
        <ele>105</ele>
        <time>2022-04-18T22:48:53Z</time>
      </trkpt>
      <trkpt lat="50.23805" lon="4.90959">
        <ele>103</ele>
        <time>2022-04-18T22:48:56Z</time>
      </trkpt>
      <trkpt lat="50.23819" lon="4.90918">
        <ele>98</ele>
        <time>2022-04-18T22:49:11Z</time>
      </trkpt>
      <trkpt lat="50.23821" lon="4.90894">
        <ele>97</ele>
        <time>2022-04-18T22:49:18Z</time>
      </trkpt>
      <trkpt lat="50.23826" lon="4.90851">
        <ele>96</ele>
        <time>2022-04-18T22:49:32Z</time>
      </trkpt>
      <trkpt lat="50.23822" lon="4.9085">
        <ele>96</ele>
        <time>2022-04-18T22:49:34Z</time>
      </trkpt>
      <trkpt lat="50.23826" lon="4.90851">
        <ele>96</ele>
        <time>2022-04-18T22:49:36Z</time>
      </trkpt>
      <trkpt lat="50.23834" lon="4.90783">
        <ele>95</ele>
        <time>2022-04-18T22:49:59Z</time>
      </trkpt>
      <trkpt lat="50.23855" lon="4.90792">
        <ele>95</ele>
        <time>2022-04-18T22:50:09Z</time>
      </trkpt>
      <trkpt lat="50.23898" lon="4.90817">
        <ele>94</ele>
        <time>2022-04-18T22:50:32Z</time>
      </trkpt>
      <trkpt lat="50.23906" lon="4.90821">
        <ele>94</ele>
        <time>2022-04-18T22:50:37Z</time>
      </trkpt>
      <trkpt lat="50.23911" lon="4.90827">
        <ele>94</ele>
        <time>2022-04-18T22:50:40Z</time>
      </trkpt>
      <trkpt lat="50.23909" lon="4.9088">
        <ele>94</ele>
        <time>2022-04-18T22:50:57Z</time>
      </trkpt>
      <trkpt lat="50.23922" lon="4.90931">
        <ele>92</ele>
        <time>2022-04-18T22:51:14Z</time>
      </trkpt>
      <trkpt lat="50.23923" lon="4.90931">
        <ele>92</ele>
        <time>2022-04-18T22:51:15Z</time>
      </trkpt>
      <trkpt lat="50.23923" lon="4.90931">
        <ele>92</ele>
        <time>2022-04-18T22:51:15Z</time>
      </trkpt>
      <trkpt lat="50.2393" lon="4.9093">
        <ele>92</ele>
        <time>2022-04-18T22:51:18Z</time>
      </trkpt>
      <trkpt lat="50.23976" lon="4.90922">
        <ele>92</ele>
        <time>2022-04-18T22:51:42Z</time>
      </trkpt>
      <trkpt lat="50.23997" lon="4.90915">
        <ele>92</ele>
        <time>2022-04-18T22:51:52Z</time>
      </trkpt>
      <trkpt lat="50.24003" lon="4.9091">
        <ele>93</ele>
        <time>2022-04-18T22:51:56Z</time>
      </trkpt>
      <trkpt lat="50.24009" lon="4.90912">
        <ele>94</ele>
        <time>2022-04-18T22:51:59Z</time>
      </trkpt>
      <trkpt lat="50.24019" lon="4.90915">
        <ele>96</ele>
        <time>2022-04-18T22:52:04Z</time>
      </trkpt>
      <trkpt lat="50.24025" lon="4.90914">
        <ele>97</ele>
        <time>2022-04-18T22:52:07Z</time>
      </trkpt>
      <trkpt lat="50.24031" lon="4.90884">
        <ele>99</ele>
        <time>2022-04-18T22:52:17Z</time>
      </trkpt>
      <trkpt lat="50.24035" lon="4.90879">
        <ele>100</ele>
        <time>2022-04-18T22:52:19Z</time>
      </trkpt>
      <trkpt lat="50.24045" lon="4.90899">
        <ele>102</ele>
        <time>2022-04-18T22:52:28Z</time>
      </trkpt>
      <trkpt lat="50.24052" lon="4.90933">
        <ele>104</ele>
        <time>2022-04-18T22:52:39Z</time>
      </trkpt>
      <trkpt lat="50.24056" lon="4.90999">
        <ele>106</ele>
        <time>2022-04-18T22:53:00Z</time>
      </trkpt>
      <trkpt lat="50.24061" lon="4.9115">
        <ele>104</ele>
        <time>2022-04-18T22:53:49Z</time>
      </trkpt>
      <trkpt lat="50.24063" lon="4.91188">
        <ele>103</ele>
        <time>2022-04-18T22:54:01Z</time>
      </trkpt>
      <trkpt lat="50.24069" lon="4.91242">
        <ele>101</ele>
        <time>2022-04-18T22:54:18Z</time>
      </trkpt>
      <trkpt lat="50.24072" lon="4.91239">
        <ele>102</ele>
        <time>2022-04-18T22:54:20Z</time>
      </trkpt>
      <trkpt lat="50.24074" lon="4.91245">
        <ele>102</ele>
        <time>2022-04-18T22:54:22Z</time>
      </trkpt>
      <trkpt lat="50.24084" lon="4.91261">
        <ele>103</ele>
        <time>2022-04-18T22:54:29Z</time>
      </trkpt>
      <trkpt lat="50.24084" lon="4.91277">
        <ele>102</ele>
        <time>2022-04-18T22:54:35Z</time>
      </trkpt>
      <trkpt lat="50.24089" lon="4.91283">
        <ele>103</ele>
        <time>2022-04-18T22:54:38Z</time>
      </trkpt>
      <trkpt lat="50.24095" lon="4.91247">
        <ele>108</ele>
        <time>2022-04-18T22:54:50Z</time>
      </trkpt>
      <trkpt lat="50.24099" lon="4.91243">
        <ele>110</ele>
        <time>2022-04-18T22:54:52Z</time>
      </trkpt>
      <trkpt lat="50.24119" lon="4.91239">
        <ele>119</ele>
        <time>2022-04-18T22:55:02Z</time>
      </trkpt>
      <trkpt lat="50.24133" lon="4.9125">
        <ele>124</ele>
        <time>2022-04-18T22:55:10Z</time>
      </trkpt>
      <trkpt lat="50.2414" lon="4.91335">
        <ele>120</ele>
        <time>2022-04-18T22:55:37Z</time>
      </trkpt>
      <trkpt lat="50.24167" lon="4.91472">
        <ele>120</ele>
        <time>2022-04-18T22:56:23Z</time>
      </trkpt>
      <trkpt lat="50.24192" lon="4.91557">
        <ele>123</ele>
        <time>2022-04-18T22:56:53Z</time>
      </trkpt>
      <trkpt lat="50.24232" lon="4.9162">
        <ele>117</ele>
        <time>2022-04-18T22:57:22Z</time>
      </trkpt>
      <trkpt lat="50.24266" lon="4.9166">
        <ele>109</ele>
        <time>2022-04-18T22:57:43Z</time>
      </trkpt>
      <trkpt lat="50.24302" lon="4.91711">
        <ele>101</ele>
        <time>2022-04-18T22:58:07Z</time>
      </trkpt>
      <trkpt lat="50.24348" lon="4.91756">
        <ele>105</ele>
        <time>2022-04-18T22:58:34Z</time>
      </trkpt>
      <trkpt lat="50.24388" lon="4.91771">
        <ele>103</ele>
        <time>2022-04-18T22:58:55Z</time>
      </trkpt>
      <trkpt lat="50.24417" lon="4.91777">
        <ele>103</ele>
        <time>2022-04-18T22:59:10Z</time>
      </trkpt>
      <trkpt lat="50.24456" lon="4.91773">
        <ele>103</ele>
        <time>2022-04-18T22:59:29Z</time>
      </trkpt>
      <trkpt lat="50.24472" lon="4.91762">
        <ele>103</ele>
        <time>2022-04-18T22:59:38Z</time>
      </trkpt>
      <trkpt lat="50.24494" lon="4.91764">
        <ele>103</ele>
        <time>2022-04-18T22:59:49Z</time>
      </trkpt>
      <trkpt lat="50.24508" lon="4.91769">
        <ele>103</ele>
        <time>2022-04-18T22:59:56Z</time>
      </trkpt>
      <trkpt lat="50.24519" lon="4.91763">
        <ele>103</ele>
        <time>2022-04-18T23:00:02Z</time>
      </trkpt>
      <trkpt lat="50.24583" lon="4.91745">
        <ele>101</ele>
        <time>2022-04-18T23:00:35Z</time>
      </trkpt>
      <trkpt lat="50.24605" lon="4.91737">
        <ele>102</ele>
        <time>2022-04-18T23:00:46Z</time>
      </trkpt>
      <trkpt lat="50.24631" lon="4.91723">
        <ele>103</ele>
        <time>2022-04-18T23:01:00Z</time>
      </trkpt>
      <trkpt lat="50.24636" lon="4.91711">
        <ele>104</ele>
        <time>2022-04-18T23:01:04Z</time>
      </trkpt>
      <trkpt lat="50.24628" lon="4.91663">
        <ele>107</ele>
        <time>2022-04-18T23:01:20Z</time>
      </trkpt>
      <trkpt lat="50.24628" lon="4.91654">
        <ele>109</ele>
        <time>2022-04-18T23:01:23Z</time>
      </trkpt>
      <trkpt lat="50.24631" lon="4.91645">
        <ele>110</ele>
        <time>2022-04-18T23:01:26Z</time>
      </trkpt>
      <trkpt lat="50.24635" lon="4.91636">
        <ele>111</ele>
        <time>2022-04-18T23:01:30Z</time>
      </trkpt>
      <trkpt lat="50.24696" lon="4.91579">
        <ele>115</ele>
        <time>2022-04-18T23:02:05Z</time>
      </trkpt>
      <trkpt lat="50.24711" lon="4.91571">
        <ele>115</ele>
        <time>2022-04-18T23:02:13Z</time>
      </trkpt>
      <trkpt lat="50.24741" lon="4.91551">
        <ele>117</ele>
        <time>2022-04-18T23:02:29Z</time>
      </trkpt>
      <trkpt lat="50.24788" lon="4.9153">
        <ele>117</ele>
        <time>2022-04-18T23:02:54Z</time>
      </trkpt>
      <trkpt lat="50.2481" lon="4.91515">
        <ele>117</ele>
        <time>2022-04-18T23:03:06Z</time>
      </trkpt>
      <trkpt lat="50.24855" lon="4.91501">
        <ele>115</ele>
        <time>2022-04-18T23:03:29Z</time>
      </trkpt>
      <trkpt lat="50.24872" lon="4.915">
        <ele>113</ele>
        <time>2022-04-18T23:03:37Z</time>
      </trkpt>
      <trkpt lat="50.24882" lon="4.91503">
        <ele>112</ele>
        <time>2022-04-18T23:03:43Z</time>
      </trkpt>
      <trkpt lat="50.24887" lon="4.91513">
        <ele>110</ele>
        <time>2022-04-18T23:03:47Z</time>
      </trkpt>
      <trkpt lat="50.24912" lon="4.9153">
        <ele>105</ele>
        <time>2022-04-18T23:04:00Z</time>
      </trkpt>
      <trkpt lat="50.24964" lon="4.91502">
        <ele>105</ele>
        <time>2022-04-18T23:04:28Z</time>
      </trkpt>
      <trkpt lat="50.2498" lon="4.91481">
        <ele>109</ele>
        <time>2022-04-18T23:04:38Z</time>
      </trkpt>
      <trkpt lat="50.25001" lon="4.91468">
        <ele>111</ele>
        <time>2022-04-18T23:04:49Z</time>
      </trkpt>
      <trkpt lat="50.25019" lon="4.91448">
        <ele>113</ele>
        <time>2022-04-18T23:05:01Z</time>
      </trkpt>
      <trkpt lat="50.25032" lon="4.91444">
        <ele>112</ele>
        <time>2022-04-18T23:05:07Z</time>
      </trkpt>
      <trkpt lat="50.2505" lon="4.91433">
        <ele>112</ele>
        <time>2022-04-18T23:05:17Z</time>
      </trkpt>
      <trkpt lat="50.25077" lon="4.91421">
        <ele>110</ele>
        <time>2022-04-18T23:05:31Z</time>
      </trkpt>
      <trkpt lat="50.25108" lon="4.91389">
        <ele>114</ele>
        <time>2022-04-18T23:05:49Z</time>
      </trkpt>
      <trkpt lat="50.25126" lon="4.91347">
        <ele>121</ele>
        <time>2022-04-18T23:06:06Z</time>
      </trkpt>
      <trkpt lat="50.25152" lon="4.91328">
        <ele>122</ele>
        <time>2022-04-18T23:06:20Z</time>
      </trkpt>
      <trkpt lat="50.25182" lon="4.91294">
        <ele>129</ele>
        <time>2022-04-18T23:06:39Z</time>
      </trkpt>
      <trkpt lat="50.25221" lon="4.91279">
        <ele>131</ele>
        <time>2022-04-18T23:06:59Z</time>
      </trkpt>
      <trkpt lat="50.25276" lon="4.91261">
        <ele>130</ele>
        <time>2022-04-18T23:07:27Z</time>
      </trkpt>
      <trkpt lat="50.25309" lon="4.91243">
        <ele>129</ele>
        <time>2022-04-18T23:07:44Z</time>
      </trkpt>
      <trkpt lat="50.25324" lon="4.91199">
        <ele>136</ele>
        <time>2022-04-18T23:08:00Z</time>
      </trkpt>
      <trkpt lat="50.25335" lon="4.9118">
        <ele>138</ele>
        <time>2022-04-18T23:08:08Z</time>
      </trkpt>
      <trkpt lat="50.25344" lon="4.91175">
        <ele>137</ele>
        <time>2022-04-18T23:08:13Z</time>
      </trkpt>
      <trkpt lat="50.25385" lon="4.91159">
        <ele>133</ele>
        <time>2022-04-18T23:08:34Z</time>
      </trkpt>
      <trkpt lat="50.25414" lon="4.91154">
        <ele>128</ele>
        <time>2022-04-18T23:08:49Z</time>
      </trkpt>
      <trkpt lat="50.25479" lon="4.91154">
        <ele>124</ele>
        <time>2022-04-18T23:09:21Z</time>
      </trkpt>
      <trkpt lat="50.25592" lon="4.91166">
        <ele>118</ele>
        <time>2022-04-18T23:10:18Z</time>
      </trkpt>
      <trkpt lat="50.2564" lon="4.9115">
        <ele>118</ele>
        <time>2022-04-18T23:10:43Z</time>
      </trkpt>
      <trkpt lat="50.25706" lon="4.91116">
        <ele>116</ele>
        <time>2022-04-18T23:11:17Z</time>
      </trkpt>
      <trkpt lat="50.2572" lon="4.91106">
        <ele>115</ele>
        <time>2022-04-18T23:11:25Z</time>
      </trkpt>
      <trkpt lat="50.25728" lon="4.91096">
        <ele>116</ele>
        <time>2022-04-18T23:11:30Z</time>
      </trkpt>
      <trkpt lat="50.25802" lon="4.91062">
        <ele>109</ele>
        <time>2022-04-18T23:12:09Z</time>
      </trkpt>
      <trkpt lat="50.2583" lon="4.91047">
        <ele>105</ele>
        <time>2022-04-18T23:12:24Z</time>
      </trkpt>
      <trkpt lat="50.25837" lon="4.91042">
        <ele>105</ele>
        <time>2022-04-18T23:12:28Z</time>
      </trkpt>
      <trkpt lat="50.25858" lon="4.91019">
        <ele>105</ele>
        <time>2022-04-18T23:12:40Z</time>
      </trkpt>
      <trkpt lat="50.2586" lon="4.91021">
        <ele>105</ele>
        <time>2022-04-18T23:12:42Z</time>
      </trkpt>
      <trkpt lat="50.25875" lon="4.91037">
        <ele>103</ele>
        <time>2022-04-18T23:12:51Z</time>
      </trkpt>
      <trkpt lat="50.25883" lon="4.91043">
        <ele>102</ele>
        <time>2022-04-18T23:12:55Z</time>
      </trkpt>
      <trkpt lat="50.25903" lon="4.9105">
        <ele>100</ele>
        <time>2022-04-18T23:13:05Z</time>
      </trkpt>
      <trkpt lat="50.25914" lon="4.91051">
        <ele>100</ele>
        <time>2022-04-18T23:13:11Z</time>
      </trkpt>
      <trkpt lat="50.25927" lon="4.91048">
        <ele>100</ele>
        <time>2022-04-18T23:13:17Z</time>
      </trkpt>
      <trkpt lat="50.2594" lon="4.91041">
        <ele>100</ele>
        <time>2022-04-18T23:13:24Z</time>
      </trkpt>
      <trkpt lat="50.25995" lon="4.90992">
        <ele>101</ele>
        <time>2022-04-18T23:13:56Z</time>
      </trkpt>
      <trkpt lat="50.26002" lon="4.9099">
        <ele>101</ele>
        <time>2022-04-18T23:14:00Z</time>
      </trkpt>
      <trkpt lat="50.26004" lon="4.90996">
        <ele>101</ele>
        <time>2022-04-18T23:14:02Z</time>
      </trkpt>
      <trkpt lat="50.26009" lon="4.90998">
        <ele>101</ele>
        <time>2022-04-18T23:14:04Z</time>
      </trkpt>
      <trkpt lat="50.2602" lon="4.91047">
        <ele>99</ele>
        <time>2022-04-18T23:14:21Z</time>
      </trkpt>
      <trkpt lat="50.25966" lon="4.91089">
        <ele>98</ele>
        <time>2022-04-18T23:14:51Z</time>
      </trkpt>
      <trkpt lat="50.25968" lon="4.91098">
        <ele>98</ele>
        <time>2022-04-18T23:14:54Z</time>
      </trkpt>
      <trkpt lat="50.2597" lon="4.91098">
        <ele>98</ele>
        <time>2022-04-18T23:14:55Z</time>
      </trkpt>
      <trkpt lat="50.26007" lon="4.91071">
        <ele>98</ele>
        <time>2022-04-18T23:15:16Z</time>
      </trkpt>
      <trkpt lat="50.26016" lon="4.91069">
        <ele>98</ele>
        <time>2022-04-18T23:15:20Z</time>
      </trkpt>
      <trkpt lat="50.26032" lon="4.9106">
        <ele>98</ele>
        <time>2022-04-18T23:15:29Z</time>
      </trkpt>
      <trkpt lat="50.26036" lon="4.91047">
        <ele>98</ele>
        <time>2022-04-18T23:15:33Z</time>
      </trkpt>
      <trkpt lat="50.26077" lon="4.91014">
        <ele>96</ele>
        <time>2022-04-18T23:15:56Z</time>
      </trkpt>
      <trkpt lat="50.26082" lon="4.91004">
        <ele>96</ele>
        <time>2022-04-18T23:16:00Z</time>
      </trkpt>
      <trkpt lat="50.26078" lon="4.90997">
        <ele>96</ele>
        <time>2022-04-18T23:16:03Z</time>
      </trkpt>
      <trkpt lat="50.26073" lon="4.91001">
        <ele>97</ele>
        <time>2022-04-18T23:16:06Z</time>
      </trkpt>
    </trkseg>
  </trk>
</gpx>